createdAt,value
2022-12-23T00:11:16.227Z,91.96
2022-12-23T00:40:15.943Z,91.44
2022-12-23T01:09:06.718Z,91.26
2022-12-23T01:46:43.791Z,92.44
2022-12-23T02:14:34.769Z,94.8
2022-12-23T02:43:17.394Z,96.5
2022-12-23T03:12:05.901Z,94.16
2022-12-23T03:40:39.556Z,93.15
2022-12-23T04:09:23.166Z,95.91
2022-12-23T04:37:55.235Z,100
2022-12-23T05:08:00.654Z,100
2022-12-23T05:36:13.633Z,100
2022-12-23T06:04:28.573Z,100
2022-12-23T07:30:33.912Z,100
2022-12-23T07:59:01.248Z,100
2022-12-23T08:28:19.076Z,100
2022-12-23T08:56:27.119Z,100
2022-12-23T09:24:36.157Z,100
2022-12-23T09:53:03.565Z,100
2022-12-23T10:21:26.566Z,100
2022-12-23T10:49:42.970Z,100
2022-12-23T11:18:06.621Z,100
2022-12-23T11:46:37.109Z,100
2022-12-23T13:12:58.440Z,100
2022-12-23T13:41:43.026Z,100
2022-12-23T14:10:13.191Z,100
2022-12-23T14:38:35.113Z,100
2022-12-23T15:07:00.592Z,100
2022-12-23T15:35:37.334Z,100
2022-12-23T16:04:15.838Z,99.32
2022-12-23T16:33:09.952Z,98.08
2022-12-23T17:01:31.282Z,96.77
2022-12-23T18:02:30.083Z,100
2022-12-23T18:29:54.327Z,100
2022-12-23T18:58:37.630Z,99.81
2022-12-23T19:27:12.612Z,100
2022-12-23T19:56:50.386Z,91.34
2022-12-23T20:25:19.548Z,82.11
2022-12-23T20:53:09.120Z,81.12
2022-12-23T21:22:13.032Z,79.61
2022-12-23T22:07:48.397Z,83.46
2022-12-23T23:34:13.493Z,79.08
